Time;durP1;ratioP1;P1;durP2;ratioP2;P2;SDS_P1;SDS_P2;PMS_P1;PMS_P2;Temp;Humidity;BMP_temperature;BMP_pressure;BME280_temperature;BME280_humidity;BME280_pressure;Samples;Min_cycle;Max_cycle;Signal;HPM_P1;HPM_P2
2023/03/18 00:00:38;;;;;;;4.25;2.38;;;;;;;;;;5091111;28;20028;-62
2023/03/18 00:03:05;;;;;;;4.75;2.30;;;;;;;;;;5091311;28;20396;-62
2023/03/18 00:05:31;;;;;;;4.05;1.98;;;;;;;;;;5091196;28;20099;-63
2023/03/18 00:07:58;;;;;;;5.32;2.35;;;;;;;;;;5091597;28;20024;-62
2023/03/18 00:10:24;;;;;;;5.05;2.47;;;;;;;;;;5090993;28;20040;-62
2023/03/18 00:12:50;;;;;;;4.20;2.28;;;;;;;;;;5094299;28;20027;-62
2023/03/18 00:15:17;;;;;;;3.30;1.77;;;;;;;;;;5111307;28;20031;-63
2023/03/18 00:17:43;;;;;;;4.20;2.17;;;;;;;;;;5111103;28;20530;-62
2023/03/18 00:20:11;;;;;;;3.55;2.22;;;;;;;;;;5111558;28;20115;-62
2023/03/18 00:22:38;;;;;;;4.72;2.25;;;;;;;;;;5111247;28;20369;-62
2023/03/18 00:25:05;;;;;;;4.07;2.10;;;;;;;;;;5096297;28;20449;-63
2023/03/18 00:27:32;;;;;;;3.60;1.88;;;;;;;;;;5090656;28;20024;-62
2023/03/18 00:29:58;;;;;;;5.03;2.25;;;;;;;;;;5090908;28;20027;-62
2023/03/18 00:32:27;;;;;;;5.10;2.33;;;;;;;;;;5089737;28;20031;-62
2023/03/18 00:34:55;;;;;;;6.38;2.78;;;;;;;;;;5089258;28;20039;-62
2023/03/18 00:37:29;;;;;;;4.18;2.28;;;;;;;;;;5089363;28;20017;-62
2023/03/18 00:40:05;;;;;;;3.03;1.77;;;;;;;;;;5089484;28;20022;-63
2023/03/18 00:42:36;;;;;;;3.95;2.05;;;;;;;;;;5088856;28;20487;-62
2023/03/18 00:45:03;;;;;;;4.78;2.03;;;;;;;;;;5087451;28;20024;-63
2023/03/18 00:47:29;;;;;;;3.80;2.20;;;;;;;;;;5090830;28;20054;-63
2023/03/18 00:49:55;;;;;;;3.88;1.63;;;;;;;;;;5089040;28;20028;-62
2023/03/18 00:52:21;;;;;;;4.68;2.20;;;;;;;;;;5088597;28;20036;-62
2023/03/18 00:54:47;;;;;;;4.57;2.10;;;;;;;;;;5088571;28;20055;-63
2023/03/18 00:57:13;;;;;;;7.75;2.30;;;;;;;;;;5088896;28;20024;-63
2023/03/18 00:59:40;;;;;;;3.25;2.22;;;;;;;;;;5088806;28;20024;-62
2023/03/18 01:02:06;;;;;;;4.63;2.10;;;;;;;;;;5089502;28;20031;-63
2023/03/18 01:04:32;;;;;;;3.72;2.00;;;;;;;;;;5108818;28;20103;-63
2023/03/18 01:06:58;;;;;;;4.05;1.92;;;;;;;;;;5108975;28;20016;-63
2023/03/18 01:09:24;;;;;;;3.80;2.20;;;;;;;;;;5109006;28;20062;-62
2023/03/18 01:11:50;;;;;;;3.08;1.65;;;;;;;;;;5111264;28;20038;-62
2023/03/18 01:14:16;;;;;;;4.05;2.45;;;;;;;;;;5113146;28;20039;-63
2023/03/18 01:16:43;;;;;;;5.07;2.40;;;;;;;;;;5113705;28;20016;-62
2023/03/18 01:19:09;;;;;;;4.68;2.83;;;;;;;;;;5094441;28;20036;-63
2023/03/18 01:21:36;;;;;;;5.95;2.65;;;;;;;;;;5094137;28;20020;-63
2023/03/18 01:24:03;;;;;;;3.28;2.15;;;;;;;;;;5094266;28;20028;-63
2023/03/18 01:26:29;;;;;;;4.65;2.63;;;;;;;;;;5093821;28;20024;-62
2023/03/18 01:28:55;;;;;;;3.65;2.10;;;;;;;;;;5094528;28;20032;-62
2023/03/18 01:31:24;;;;;;;4.75;2.47;;;;;;;;;;5094211;28;20103;-63
2023/03/18 01:33:50;;;;;;;4.13;2.13;;;;;;;;;;5113857;28;20089;-62
2023/03/18 01:36:16;;;;;;;4.07;2.45;;;;;;;;;;5114498;28;20027;-63
2023/03/18 01:38:42;;;;;;;4.90;2.25;;;;;;;;;;5114010;28;20034;-62
2023/03/18 01:41:08;;;;;;;4.95;2.47;;;;;;;;;;5102535;28;20103;-62
2023/03/18 01:43:37;;;;;;;3.03;2.08;;;;;;;;;;5093725;28;20060;-62
2023/03/18 01:46:23;;;;;;;3.72;2.17;;;;;;;;;;5093726;28;20488;-62
2023/03/18 01:48:50;;;;;;;3.15;1.95;;;;;;;;;;5093226;28;20059;-63
2023/03/18 01:51:17;;;;;;;4.28;2.30;;;;;;;;;;5093730;28;20021;-63
2023/03/18 01:53:46;;;;;;;4.13;2.10;;;;;;;;;;5093444;28;20119;-62
2023/03/18 01:56:13;;;;;;;2.75;2.00;;;;;;;;;;5093614;28;20077;-62
2023/03/18 01:58:41;;;;;;;3.03;2.10;;;;;;;;;;5093445;28;20063;-62
2023/03/18 02:01:13;;;;;;;6.20;2.33;;;;;;;;;;5093614;28;20042;-62
2023/03/18 02:03:41;;;;;;;4.80;2.00;;;;;;;;;;5102349;28;20043;-62
2023/03/18 02:06:08;;;;;;;3.50;2.25;;;;;;;;;;5113990;28;20016;-63
2023/03/18 02:08:35;;;;;;;3.58;2.13;;;;;;;;;;5113741;28;20478;-63
2023/03/18 02:11:02;;;;;;;4.85;2.30;;;;;;;;;;5113697;28;20110;-62
2023/03/18 02:13:28;;;;;;;3.15;1.83;;;;;;;;;;5113764;28;20089;-63
2023/03/18 02:16:06;;;;;;;3.40;2.42;;;;;;;;;;5113922;28;20039;-62
2023/03/18 02:18:34;;;;;;;4.07;2.50;;;;;;;;;;5111337;28;20483;-62
2023/03/18 02:21:19;;;;;;;3.95;2.30;;;;;;;;;;5113303;28;20026;-63
2023/03/18 02:23:55;;;;;;;3.87;1.80;;;;;;;;;;5104413;28;20043;-62
2023/03/18 02:26:21;;;;;;;5.28;2.05;;;;;;;;;;5093130;28;20055;-62
2023/03/18 02:28:50;;;;;;;3.80;2.00;;;;;;;;;;5092709;28;20016;-62
2023/03/18 02:31:17;;;;;;;4.72;2.13;;;;;;;;;;5093040;28;20069;-62
2023/03/18 02:33:43;;;;;;;3.40;1.98;;;;;;;;;;5092641;28;20507;-62
2023/03/18 02:36:11;;;;;;;2.28;1.42;;;;;;;;;;5092900;28;20024;-62
2023/03/18 02:38:44;;;;;;;3.60;1.83;;;;;;;;;;5092432;28;20067;-62
2023/03/18 02:41:18;;;;;;;3.20;2.03;;;;;;;;;;5093547;28;20028;-62
2023/03/18 02:43:44;;;;;;;3.67;2.28;;;;;;;;;;5092529;28;20021;-62
2023/03/18 02:46:14;;;;;;;3.53;1.83;;;;;;;;;;5092518;28;20028;-62
2023/03/18 02:48:42;;;;;;;3.10;1.95;;;;;;;;;;5092518;28;20028;-62
2023/03/18 02:51:09;;;;;;;5.18;2.10;;;;;;;;;;5091200;28;20030;-63
2023/03/18 02:53:35;;;;;;;3.60;2.10;;;;;;;;;;5092365;28;20075;-63
2023/03/18 02:56:01;;;;;;;4.75;2.42;;;;;;;;;;5107477;28;20042;-62
2023/03/18 02:58:27;;;;;;;2.92;1.90;;;;;;;;;;5113117;28;20110;-62
2023/03/18 03:00:54;;;;;;;3.00;1.95;;;;;;;;;;5113090;28;20019;-62
2023/03/18 03:03:21;;;;;;;2.78;1.63;;;;;;;;;;5112582;28;20404;-62
2023/03/18 03:05:47;;;;;;;2.38;1.63;;;;;;;;;;5112437;28;20376;-62
2023/03/18 03:08:14;;;;;;;3.10;2.03;;;;;;;;;;5112564;28;20035;-63
2023/03/18 03:10:40;;;;;;;3.30;1.75;;;;;;;;;;5111544;28;20508;-62
2023/03/18 03:13:06;;;;;;;4.07;2.28;;;;;;;;;;5112579;28;20391;-62
2023/03/18 03:15:32;;;;;;;3.20;2.10;;;;;;;;;;5111591;28;20027;-62
2023/03/18 03:17:58;;;;;;;3.75;1.98;;;;;;;;;;5092144;28;20028;-62
2023/03/18 03:20:24;;;;;;;4.93;2.60;;;;;;;;;;5092310;28;20050;-63
2023/03/18 03:22:52;;;;;;;2.45;1.45;;;;;;;;;;5091747;28;20028;-62
2023/03/18 03:25:18;;;;;;;3.03;2.05;;;;;;;;;;5092103;28;20024;-63
2023/03/18 03:27:44;;;;;;;3.22;1.95;;;;;;;;;;5091826;28;20028;-62
2023/03/18 03:30:11;;;;;;;2.38;1.70;;;;;;;;;;5091932;28;20380;-63
2023/03/18 03:32:37;;;;;;;3.92;2.17;;;;;;;;;;5110930;28;20492;-63
2023/03/18 03:35:04;;;;;;;2.80;1.90;;;;;;;;;;5111833;28;20073;-62
2023/03/18 03:37:30;;;;;;;3.97;2.08;;;;;;;;;;5111850;28;20027;-62
2023/03/18 03:39:56;;;;;;;3.28;2.17;;;;;;;;;;5112067;28;20055;-63
2023/03/18 03:42:22;;;;;;;3.42;1.90;;;;;;;;;;5112094;28;20055;-62
2023/03/18 03:44:48;;;;;;;2.90;1.88;;;;;;;;;;5111954;28;20028;-63
2023/03/18 03:47:14;;;;;;;3.97;1.98;;;;;;;;;;5112062;28;20494;-63
2023/03/18 03:49:40;;;;;;;2.90;1.95;;;;;;;;;;5111767;28;20035;-63
2023/03/18 03:52:07;;;;;;;2.35;1.70;;;;;;;;;;5111681;28;20026;-63
2023/03/18 03:54:33;;;;;;;3.78;1.70;;;;;;;;;;5111257;28;20036;-63
2023/03/18 03:56:59;;;;;;;2.65;1.77;;;;;;;;;;5111886;28;20038;-63
2023/03/18 03:59:26;;;;;;;3.90;2.22;;;;;;;;;;5111991;27;20027;-63
2023/03/18 04:01:52;;;;;;;3.45;2.08;;;;;;;;;;5111410;28;20023;-63
2023/03/18 04:04:18;;;;;;;3.13;2.00;;;;;;;;;;5111445;28;20027;-63
2023/03/18 04:06:44;;;;;;;3.67;2.67;;;;;;;;;;5111499;28;20063;-62
2023/03/18 04:09:10;;;;;;;2.47;1.92;;;;;;;;;;5103261;28;20487;-62
2023/03/18 04:11:35;;;;;;;3.53;2.38;;;;;;;;;;5091000;28;20032;-63
2023/03/18 04:14:01;;;;;;;2.63;1.75;;;;;;;;;;5091149;28;20027;-63
2023/03/18 04:16:27;;;;;;;3.03;1.90;;;;;;;;;;5091456;28;20028;-63
2023/03/18 04:18:53;;;;;;;3.17;2.15;;;;;;;;;;5091564;28;20357;-63
2023/03/18 04:21:20;;;;;;;4.30;2.22;;;;;;;;;;5091074;28;20024;-63
2023/03/18 04:23:46;;;;;;;4.35;2.35;;;;;;;;;;5090823;28;20536;-63
2023/03/18 04:26:12;;;;;;;5.05;2.20;;;;;;;;;;5091102;28;20039;-63
2023/03/18 04:28:38;;;;;;;3.65;2.20;;;;;;;;;;5090936;28;20024;-63
2023/03/18 04:31:04;;;;;;;3.40;1.85;;;;;;;;;;5091103;28;20039;-63
2023/03/18 04:33:30;;;;;;;3.70;2.55;;;;;;;;;;5090578;28;20492;-62
2023/03/18 04:35:57;;;;;;;2.72;1.88;;;;;;;;;;5091076;28;20032;-62
2023/03/18 04:38:23;;;;;;;3.83;2.47;;;;;;;;;;5091126;28;20024;-62
2023/03/18 04:40:49;;;;;;;3.67;2.13;;;;;;;;;;5090734;28;20435;-62
2023/03/18 04:43:15;;;;;;;3.80;2.20;;;;;;;;;;5091059;28;20085;-62
2023/03/18 04:45:42;;;;;;;3.95;2.50;;;;;;;;;;5093446;28;20438;-63
2023/03/18 04:48:09;;;;;;;2.78;2.22;;;;;;;;;;5094984;28;20031;-62
2023/03/18 04:50:35;;;;;;;3.25;2.03;;;;;;;;;;5094816;28;20020;-62
2023/03/18 04:53:01;;;;;;;3.22;2.17;;;;;;;;;;5095765;28;20032;-62
2023/03/18 04:55:27;;;;;;;4.90;2.78;;;;;;;;;;5095187;28;20521;-63
2023/03/18 04:57:53;;;;;;;4.55;2.63;;;;;;;;;;5094804;28;20028;-63
2023/03/18 05:00:21;;;;;;;3.58;2.40;;;;;;;;;;5094656;28;20063;-62
2023/03/18 05:02:47;;;;;;;4.57;2.53;;;;;;;;;;5094562;28;20020;-62
2023/03/18 05:05:13;;;;;;;4.57;2.75;;;;;;;;;;5094656;28;20077;-62
2023/03/18 05:07:39;;;;;;;3.42;2.35;;;;;;;;;;5094343;28;20036;-63
2023/03/18 05:10:06;;;;;;;3.20;2.45;;;;;;;;;;5094550;28;20021;-63
2023/03/18 05:12:32;;;;;;;3.72;2.75;;;;;;;;;;5094286;28;20124;-63
2023/03/18 05:14:58;;;;;;;4.10;3.10;;;;;;;;;;5094712;28;20032;-63
2023/03/18 05:17:24;;;;;;;3.95;2.83;;;;;;;;;;5094626;28;20032;-63
2023/03/18 05:19:50;;;;;;;3.30;2.58;;;;;;;;;;5114532;28;20023;-62
2023/03/18 05:22:17;;;;;;;4.30;3.30;;;;;;;;;;5114823;28;20027;-63
2023/03/18 05:24:44;;;;;;;3.15;2.72;;;;;;;;;;5114365;28;20024;-62
2023/03/18 05:27:11;;;;;;;3.83;2.72;;;;;;;;;;5114788;28;20039;-63
2023/03/18 05:29:39;;;;;;;4.15;3.13;;;;;;;;;;5114399;28;20039;-63
2023/03/18 05:32:05;;;;;;;5.28;3.20;;;;;;;;;;5114386;27;20582;-63
2023/03/18 05:34:32;;;;;;;2.97;2.67;;;;;;;;;;5113937;28;20035;-63
2023/03/18 05:36:58;;;;;;;4.32;3.15;;;;;;;;;;5114798;28;20098;-62
2023/03/18 05:39:24;;;;;;;3.45;3.03;;;;;;;;;;5114740;28;20031;-62
2023/03/18 05:41:50;;;;;;;4.05;3.45;;;;;;;;;;5114227;28;20367;-62
2023/03/18 05:44:16;;;;;;;5.25;3.45;;;;;;;;;;5114383;28;20103;-62
2023/03/18 05:46:43;;;;;;;4.10;3.10;;;;;;;;;;5112300;28;20103;-62
2023/03/18 05:49:09;;;;;;;4.47;3.03;;;;;;;;;;5094592;28;20039;-62
2023/03/18 05:51:36;;;;;;;3.05;2.50;;;;;;;;;;5093174;28;20017;-62
2023/03/18 05:54:03;;;;;;;3.97;3.10;;;;;;;;;;5093416;28;20072;-62
2023/03/18 05:56:30;;;;;;;5.38;3.38;;;;;;;;;;5092491;28;20035;-63
2023/03/18 05:58:56;;;;;;;4.40;3.35;;;;;;;;;;5094051;28;20035;-63
2023/03/18 06:01:23;;;;;;;4.22;3.20;;;;;;;;;;5104012;28;20016;-63
2023/03/18 06:03:49;;;;;;;4.18;3.67;;;;;;;;;;5113889;28;20042;-62
2023/03/18 06:06:16;;;;;;;4.95;3.30;;;;;;;;;;5113887;28;20030;-62
2023/03/18 06:08:42;;;;;;;5.30;3.42;;;;;;;;;;5107690;28;20107;-63
2023/03/18 06:11:09;;;;;;;5.70;4.38;;;;;;;;;;5093238;28;20452;-62
2023/03/18 06:13:36;;;;;;;4.55;3.28;;;;;;;;;;5092984;28;20039;-63
2023/03/18 06:16:02;;;;;;;4.47;3.65;;;;;;;;;;5093186;28;20488;-62
2023/03/18 06:18:28;;;;;;;6.15;3.80;;;;;;;;;;5093021;28;20030;-63
2023/03/18 06:20:55;;;;;;;4.57;3.80;;;;;;;;;;5093655;28;20036;-62
2023/03/18 06:23:21;;;;;;;5.22;3.72;;;;;;;;;;5094430;28;20473;-62
2023/03/18 06:25:48;;;;;;;6.00;3.97;;;;;;;;;;5106506;28;20036;-63
2023/03/18 06:28:14;;;;;;;6.57;4.15;;;;;;;;;;5113457;28;20027;-62
2023/03/18 06:30:40;;;;;;;4.75;3.75;;;;;;;;;;5113266;28;20024;-62
2023/03/18 06:33:07;;;;;;;4.40;3.50;;;;;;;;;;5113352;28;20078;-63
2023/03/18 06:35:34;;;;;;;6.60;3.92;;;;;;;;;;5113252;28;20028;-63
2023/03/18 06:38:00;;;;;;;5.25;3.80;;;;;;;;;;5101075;28;20392;-62
2023/03/18 06:40:26;;;;;;;7.45;4.18;;;;;;;;;;5093146;28;20027;-62
2023/03/18 06:42:52;;;;;;;5.30;3.70;;;;;;;;;;5093383;28;20024;-62
2023/03/18 06:45:18;;;;;;;5.00;3.78;;;;;;;;;;5092635;28;20459;-62
2023/03/18 06:47:45;;;;;;;5.30;4.18;;;;;;;;;;5092516;28;20112;-62
2023/03/18 06:50:12;;;;;;;4.45;3.65;;;;;;;;;;5092721;28;20443;-63
2023/03/18 06:52:38;;;;;;;4.70;3.60;;;;;;;;;;5092407;28;20135;-63
2023/03/18 06:55:08;;;;;;;4.68;3.63;;;;;;;;;;5092638;28;20056;-63
2023/03/18 06:57:34;;;;;;;3.75;3.35;;;;;;;;;;5093233;28;20016;-63
2023/03/18 07:00:00;;;;;;;4.55;3.30;;;;;;;;;;5092479;28;20030;-62
2023/03/18 07:02:27;;;;;;;5.82;3.45;;;;;;;;;;5092980;28;20066;-63
2023/03/18 07:04:54;;;;;;;5.20;3.90;;;;;;;;;;5092102;28;20514;-63
2023/03/18 07:07:21;;;;;;;5.35;3.72;;;;;;;;;;5092468;28;20404;-63
2023/03/18 07:09:47;;;;;;;5.10;3.63;;;;;;;;;;5092160;28;20039;-63
2023/03/18 07:12:13;;;;;;;4.63;3.35;;;;;;;;;;5092136;28;20503;-62
2023/03/18 07:14:42;;;;;;;4.47;3.60;;;;;;;;;;5092190;28;20031;-62
2023/03/18 07:17:09;;;;;;;4.53;3.15;;;;;;;;;;5092450;28;20095;-63
2023/03/18 07:19:35;;;;;;;4.57;3.30;;;;;;;;;;5093152;28;20024;-63
2023/03/18 07:22:01;;;;;;;4.28;3.50;;;;;;;;;;5100667;28;20107;-63
2023/03/18 07:24:27;;;;;;;5.20;3.80;;;;;;;;;;5093784;28;20103;-63
2023/03/18 07:26:53;;;;;;;7.07;3.70;;;;;;;;;;5091944;28;20043;-63
2023/03/18 07:29:20;;;;;;;5.57;3.90;;;;;;;;;;5090863;28;20035;-63
2023/03/18 07:31:46;;;;;;;4.82;3.72;;;;;;;;;;5090725;28;20545;-63
2023/03/18 07:34:13;;;;;;;4.65;3.88;;;;;;;;;;5091066;28;20380;-63
2023/03/18 07:36:40;;;;;;;6.07;3.85;;;;;;;;;;5083555;28;20162;-63
2023/03/18 07:39:09;;;;;;;6.22;4.13;;;;;;;;;;5092216;28;20017;-61
2023/03/18 07:41:35;;;;;;;5.40;3.65;;;;;;;;;;5091677;28;20016;-61
2023/03/18 07:44:02;;;;;;;4.47;3.38;;;;;;;;;;5091577;28;20433;-63
2023/03/18 07:46:28;;;;;;;4.47;3.60;;;;;;;;;;5091749;28;20028;-62
2023/03/18 07:48:54;;;;;;;3.70;3.25;;;;;;;;;;5091664;28;20024;-63
2023/03/18 07:51:20;;;;;;;5.65;3.30;;;;;;;;;;5091512;28;20035;-62
2023/03/18 07:53:46;;;;;;;6.75;3.50;;;;;;;;;;5098251;28;20393;-62
2023/03/18 07:56:12;;;;;;;7.10;3.90;;;;;;;;;;5110601;28;20020;-63
2023/03/18 07:58:38;;;;;;;3.83;3.28;;;;;;;;;;5106246;28;20073;-63
2023/03/18 08:01:05;;;;;;;3.70;3.30;;;;;;;;;;5091038;28;20016;-63
2023/03/18 08:03:31;;;;;;;4.63;3.42;;;;;;;;;;5091274;28;20060;-63
2023/03/18 08:05:57;;;;;;;4.13;3.20;;;;;;;;;;5092172;28;20031;-61
2023/03/18 08:08:23;;;;;;;4.63;3.42;;;;;;;;;;5108357;28;20023;-61
2023/03/18 08:10:50;;;;;;;3.90;2.95;;;;;;;;;;5111076;28;20020;-60
2023/03/18 08:13:16;;;;;;;6.00;3.90;;;;;;;;;;5111649;28;20040;-61
2023/03/18 08:15:43;;;;;;;4.78;3.50;;;;;;;;;;5111452;28;20023;-62
2023/03/18 08:18:09;;;;;;;3.88;3.03;;;;;;;;;;5111402;28;20488;-61
2023/03/18 08:20:35;;;;;;;5.93;2.80;;;;;;;;;;5111039;28;20030;-63
2023/03/18 08:23:02;;;;;;;2.92;2.45;;;;;;;;;;5110752;28;20054;-62
2023/03/18 08:25:28;;;;;;;4.43;3.15;;;;;;;;;;5095246;28;20016;-63
2023/03/18 08:27:55;;;;;;;4.93;3.63;;;;;;;;;;5090208;28;20043;-61
2023/03/18 08:30:24;;;;;;;6.72;3.30;;;;;;;;;;5090979;28;20028;-61
2023/03/18 08:32:50;;;;;;;5.32;3.38;;;;;;;;;;5091949;28;20036;-61
2023/03/18 08:35:16;;;;;;;5.53;3.45;;;;;;;;;;5091103;28;20499;-61
2023/03/18 08:37:42;;;;;;;4.50;3.35;;;;;;;;;;5090792;28;20098;-61
2023/03/18 08:40:09;;;;;;;4.60;3.30;;;;;;;;;;5096345;28;20108;-62
2023/03/18 08:42:35;;;;;;;4.10;3.15;;;;;;;;;;5111172;28;20016;-62
2023/03/18 08:45:01;;;;;;;4.13;3.60;;;;;;;;;;5111289;28;20050;-61
2023/03/18 08:47:28;;;;;;;4.88;3.50;;;;;;;;;;5105121;28;20025;-63
2023/03/18 08:49:55;;;;;;;5.80;4.22;;;;;;;;;;5090824;28;20089;-63
2023/03/18 08:52:21;;;;;;;6.20;4.20;;;;;;;;;;5090697;28;20062;-62
2023/03/18 08:54:48;;;;;;;4.22;3.15;;;;;;;;;;5090185;28;20107;-64
2023/03/18 08:57:14;;;;;;;6.13;3.80;;;;;;;;;;5090981;28;20027;-62
2023/03/18 08:59:40;;;;;;;5.43;4.50;;;;;;;;;;5090402;28;20028;-62
2023/03/18 09:02:07;;;;;;;6.10;3.75;;;;;;;;;;5106107;28;20028;-62
2023/03/18 09:04:33;;;;;;;7.63;4.30;;;;;;;;;;5110938;28;20183;-62
2023/03/18 09:07:00;;;;;;;5.45;3.85;;;;;;;;;;5109045;28;20102;-62
2023/03/18 09:09:26;;;;;;;4.22;3.67;;;;;;;;;;5111219;28;20470;-62
2023/03/18 09:11:53;;;;;;;4.78;3.53;;;;;;;;;;5109034;28;20124;-62
2023/03/18 09:14:19;;;;;;;5.28;4.03;;;;;;;;;;5110591;28;20069;-62
2023/03/18 09:16:45;;;;;;;4.60;3.85;;;;;;;;;;5110812;28;20020;-62
2023/03/18 09:19:11;;;;;;;4.30;3.17;;;;;;;;;;5110827;28;20387;-62
2023/03/18 09:21:37;;;;;;;5.47;3.95;;;;;;;;;;5110633;28;20063;-63
2023/03/18 09:24:03;;;;;;;4.45;3.40;;;;;;;;;;5110456;28;20510;-63
2023/03/18 09:26:29;;;;;;;6.38;3.60;;;;;;;;;;5086908;28;20028;-63
2023/03/18 09:28:56;;;;;;;3.72;2.72;;;;;;;;;;5089976;28;20012;-63
2023/03/18 09:31:22;;;;;;;4.32;3.05;;;;;;;;;;5089919;28;20032;-63
2023/03/18 09:33:48;;;;;;;4.25;3.30;;;;;;;;;;5093363;28;20063;-63
2023/03/18 09:36:14;;;;;;;6.38;3.10;;;;;;;;;;5093938;28;20028;-63
2023/03/18 09:38:41;;;;;;;4.43;3.53;;;;;;;;;;5092770;28;20514;-63
2023/03/18 09:41:17;;;;;;;3.53;2.72;;;;;;;;;;5093830;28;20028;-63
2023/03/18 09:43:59;;;;;;;5.35;3.15;;;;;;;;;;5093796;28;20020;-63
2023/03/18 09:46:34;;;;;;;3.78;2.70;;;;;;;;;;5093627;28;20031;-63
2023/03/18 09:49:06;;;;;;;4.57;2.95;;;;;;;;;;5093780;28;20051;-63
2023/03/18 09:51:36;;;;;;;3.95;2.70;;;;;;;;;;5092653;28;20039;-63
2023/03/18 09:54:05;;;;;;;4.95;3.60;;;;;;;;;;5091562;28;20738;-63
2023/03/18 09:56:34;;;;;;;3.95;2.80;;;;;;;;;;5091685;28;20480;-63
2023/03/18 09:59:06;;;;;;;8.38;3.08;;;;;;;;;;5091805;28;20035;-63
2023/03/18 10:01:34;;;;;;;4.30;2.40;;;;;;;;;;5091807;28;20016;-62
2023/03/18 10:04:15;;;;;;;4.25;2.85;;;;;;;;;;5091831;28;20024;-64
2023/03/18 10:06:43;;;;;;;3.17;2.70;;;;;;;;;;5089760;28;20114;-63
2023/03/18 10:09:09;;;;;;;7.40;2.75;;;;;;;;;;5091859;28;20058;-62
2023/03/18 10:11:46;;;;;;;5.20;2.97;;;;;;;;;;5091451;28;20060;-64
2023/03/18 10:14:30;;;;;;;4.93;2.70;;;;;;;;;;5091417;28;20032;-62
2023/03/18 10:17:12;;;;;;;5.10;2.78;;;;;;;;;;5089730;28;20020;-62
2023/03/18 10:19:43;;;;;;;3.72;2.92;;;;;;;;;;5090195;28;20055;-62
2023/03/18 10:22:18;;;;;;;3.88;2.83;;;;;;;;;;5101700;28;20028;-62
2023/03/18 10:24:57;;;;;;;3.88;2.70;;;;;;;;;;5092564;28;20035;-61
2023/03/18 10:27:37;;;;;;;4.07;3.03;;;;;;;;;;5093327;28;20110;-62
2023/03/18 10:30:18;;;;;;;7.78;2.75;;;;;;;;;;5098809;28;20514;-62
2023/03/18 10:33:01;;;;;;;5.68;2.80;;;;;;;;;;5112888;28;20372;-63
2023/03/18 10:35:37;;;;;;;6.22;2.80;;;;;;;;;;5072943;28;20444;-64
2023/03/18 10:38:11;;;;;;;5.47;2.53;;;;;;;;;;5075965;28;20056;-62
2023/03/18 10:40:38;;;;;;;4.38;2.53;;;;;;;;;;5091207;28;20058;-63
2023/03/18 10:43:13;;;;;;;3.78;2.60;;;;;;;;;;5089589;28;20098;-64
2023/03/18 10:45:41;;;;;;;3.75;2.13;;;;;;;;;;5091233;28;20553;-61
2023/03/18 10:48:12;;;;;;;5.43;2.80;;;;;;;;;;5092411;28;20032;-62
2023/03/18 10:50:48;;;;;;;4.05;2.67;;;;;;;;;;5092339;28;20027;-62
2023/03/18 10:53:20;;;;;;;4.82;2.88;;;;;;;;;;5091192;28;20044;-62
2023/03/18 10:55:56;;;;;;;5.40;2.70;;;;;;;;;;5093678;28;20058;-61
2023/03/18 10:58:22;;;;;;;3.97;2.38;;;;;;;;;;5104170;28;20488;-63
2023/03/18 11:00:50;;;;;;;4.90;2.60;;;;;;;;;;5102220;28;20184;-62
2023/03/18 11:03:18;;;;;;;4.15;2.70;;;;;;;;;;5091837;28;20028;-64
2023/03/18 11:05:44;;;;;;;3.88;2.08;;;;;;;;;;5091829;28;20423;-62
2023/03/18 11:08:28;;;;;;;4.45;2.28;;;;;;;;;;5092264;28;20028;-62
2023/03/18 11:10:54;;;;;;;3.63;1.80;;;;;;;;;;5092246;28;20487;-61
2023/03/18 11:13:24;;;;;;;5.95;2.35;;;;;;;;;;5091607;28;20040;-61
2023/03/18 11:15:51;;;;;;;3.72;2.08;;;;;;;;;;5090855;28;20028;-61
2023/03/18 11:18:21;;;;;;;6.65;2.08;;;;;;;;;;5090878;28;20397;-64
2023/03/18 11:20:54;;;;;;;3.80;2.08;;;;;;;;;;5088639;28;20444;-62
2023/03/18 11:23:55;;;;;;;4.95;2.35;;;;;;;;;;5090355;28;20028;-62
2023/03/18 11:26:28;;;;;;;5.68;2.15;;;;;;;;;;5090075;28;20506;-61
2023/03/18 11:28:56;;;;;;;5.43;1.85;;;;;;;;;;5090742;28;20020;-64
2023/03/18 11:31:22;;;;;;;7.93;1.95;;;;;;;;;;5090494;28;20447;-62
2023/03/18 11:33:48;;;;;;;5.00;2.20;;;;;;;;;;5089975;28;20093;-61
2023/03/18 11:36:18;;;;;;;3.28;2.10;;;;;;;;;;5090622;28;20061;-61
2023/03/18 11:38:44;;;;;;;3.67;2.03;;;;;;;;;;5090912;28;20399;-59
2023/03/18 11:41:21;;;;;;;3.67;2.30;;;;;;;;;;5093273;28;20020;-63
2023/03/18 11:43:55;;;;;;;4.43;2.10;;;;;;;;;;5087511;28;20024;-64
2023/03/18 11:46:22;;;;;;;5.72;1.88;;;;;;;;;;5091368;28;20084;-63
2023/03/18 11:48:48;;;;;;;4.75;1.92;;;;;;;;;;5091492;28;20372;-62
2023/03/18 11:51:29;;;;;;;4.10;1.85;;;;;;;;;;5090856;28;20032;-62
2023/03/18 11:53:55;;;;;;;7.25;2.33;;;;;;;;;;5090813;28;20070;-64
2023/03/18 11:56:26;;;;;;;9.55;2.13;;;;;;;;;;5089414;28;20444;-61
2023/03/18 11:58:55;;;;;;;5.53;1.98;;;;;;;;;;5088711;28;20034;-60
2023/03/18 12:01:38;;;;;;;5.00;2.05;;;;;;;;;;5090490;28;20032;-60
2023/03/18 12:04:20;;;;;;;8.07;2.30;;;;;;;;;;5088498;28;20032;-61
2023/03/18 12:06:59;;;;;;;4.20;2.13;;;;;;;;;;5091202;28;20020;-61
2023/03/18 12:09:47;;;;;;;3.28;1.95;;;;;;;;;;5091131;28;20040;-61
2023/03/18 12:12:24;;;;;;;6.22;2.05;;;;;;;;;;5070584;28;20068;-62
2023/03/18 12:15:02;;;;;;;5.78;2.60;;;;;;;;;;5090473;28;20044;-65
2023/03/18 12:17:28;;;;;;;5.80;1.88;;;;;;;;;;5080761;28;20047;-59
2023/03/18 12:19:54;;;;;;;3.83;2.42;;;;;;;;;;5091744;28;20480;-67
2023/03/18 12:22:33;;;;;;;3.33;2.10;;;;;;;;;;5089852;28;20055;-62
2023/03/18 12:25:17;;;;;;;5.60;2.30;;;;;;;;;;5088387;28;20146;-62
2023/03/18 12:28:02;;;;;;;4.50;2.05;;;;;;;;;;5088438;28;20028;-61
2023/03/18 12:30:39;;;;;;;4.50;2.22;;;;;;;;;;5088364;28;20032;-61
2023/03/18 12:33:12;;;;;;;2.15;1.65;;;;;;;;;;5088348;28;20071;-65
2023/03/18 12:35:53;;;;;;;4.97;2.60;;;;;;;;;;5088069;28;20032;-63
2023/03/18 12:38:34;;;;;;;5.72;2.38;;;;;;;;;;5087876;28;20122;-61
2023/03/18 12:41:16;;;;;;;4.97;2.47;;;;;;;;;;5088978;28;20020;-60
2023/03/18 12:43:42;;;;;;;5.85;2.20;;;;;;;;;;5089908;28;20032;-61
2023/03/18 12:46:23;;;;;;;9.45;2.20;;;;;;;;;;5089994;28;20024;-63
2023/03/18 12:48:55;;;;;;;3.75;1.90;;;;;;;;;;5090242;28;20431;-64
2023/03/18 12:51:24;;;;;;;3.75;1.83;;;;;;;;;;5090865;28;20085;-62
2023/03/18 12:53:57;;;;;;;4.75;2.08;;;;;;;;;;5090383;28;20116;-63
2023/03/18 12:56:24;;;;;;;5.72;1.77;;;;;;;;;;5090444;28;20035;-63
2023/03/18 12:58:55;;;;;;;3.65;1.83;;;;;;;;;;5090425;28;20085;-64
2023/03/18 13:01:32;;;;;;;3.72;1.88;;;;;;;;;;5090997;28;20035;-60
2023/03/18 13:04:10;;;;;;;3.78;1.75;;;;;;;;;;5091212;28;20031;-61
2023/03/18 13:06:45;;;;;;;4.75;2.03;;;;;;;;;;5093301;28;20021;-61
2023/03/18 13:09:30;;;;;;;4.38;1.90;;;;;;;;;;5094890;28;20556;-60
2023/03/18 13:12:15;;;;;;;7.22;2.08;;;;;;;;;;5094209;28;20039;-62
2023/03/18 13:14:59;;;;;;;3.45;1.80;;;;;;;;;;5093584;28;20040;-62
2023/03/18 13:17:31;;;;;;;4.57;2.03;;;;;;;;;;5095020;28;20361;-63
2023/03/18 13:20:01;;;;;;;5.13;1.90;;;;;;;;;;5094819;28;20027;-61
2023/03/18 13:22:42;;;;;;;4.72;1.92;;;;;;;;;;5093068;28;20055;-61
2023/03/18 13:25:17;;;;;;;4.43;1.77;;;;;;;;;;5094244;28;20043;-61
2023/03/18 13:27:46;;;;;;;3.92;1.90;;;;;;;;;;5094186;28;20051;-61
2023/03/18 13:30:13;;;;;;;4.13;1.90;;;;;;;;;;5093783;28;20028;-61
2023/03/18 13:33:02;;;;;;;6.05;1.73;;;;;;;;;;5093971;28;20074;-63
2023/03/18 13:35:49;;;;;;;5.60;1.98;;;;;;;;;;5093612;28;20097;-62
2023/03/18 13:38:37;;;;;;;6.10;2.67;;;;;;;;;;5094167;28;20034;-61
2023/03/18 13:41:02;;;;;;;4.32;1.88;;;;;;;;;;5094048;28;20062;-60
2023/03/18 13:43:29;;;;;;;5.72;2.03;;;;;;;;;;5093961;28;20028;-60
2023/03/18 13:45:56;;;;;;;5.82;1.90;;;;;;;;;;5093602;28;20024;-61
2023/03/18 13:48:33;;;;;;;7.22;1.83;;;;;;;;;;5093514;28;20063;-61
2023/03/18 13:51:13;;;;;;;3.70;2.10;;;;;;;;;;5094083;28;20024;-62
2023/03/18 13:53:42;;;;;;;4.22;1.50;;;;;;;;;;5092458;28;20032;-61
2023/03/18 13:56:27;;;;;;;6.38;2.00;;;;;;;;;;5092320;28;20032;-63
2023/03/18 13:58:53;;;;;;;5.70;2.20;;;;;;;;;;5092101;28;20036;-63
2023/03/18 14:01:27;;;;;;;8.10;2.97;;;;;;;;;;5091810;28;20024;-61
2023/03/18 14:03:55;;;;;;;3.28;1.65;;;;;;;;;;5089665;28;20020;-63
2023/03/18 14:06:36;;;;;;;4.32;1.88;;;;;;;;;;5091926;28;20020;-62
2023/03/18 14:09:28;;;;;;;3.80;2.00;;;;;;;;;;5090767;28;20102;-62
2023/03/18 14:11:56;;;;;;;6.05;1.63;;;;;;;;;;5089000;28;20047;-60
2023/03/18 14:14:40;;;;;;;6.05;2.47;;;;;;;;;;5092598;28;20036;-61
2023/03/18 14:17:14;;;;;;;6.53;2.20;;;;;;;;;;5092457;28;20103;-61
2023/03/18 14:19:40;;;;;;;4.43;2.50;;;;;;;;;;5093396;28;20020;-62
2023/03/18 14:22:22;;;;;;;10.40;2.92;;;;;;;;;;5092861;28;20506;-61
2023/03/18 14:25:07;;;;;;;12.90;2.42;;;;;;;;;;5093267;28;20056;-60
2023/03/18 14:27:43;;;;;;;5.38;2.45;;;;;;;;;;5093256;28;20024;-61
2023/03/18 14:30:28;;;;;;;11.30;3.60;;;;;;;;;;5093026;28;20119;-60
2023/03/18 14:33:02;;;;;;;7.22;2.03;;;;;;;;;;5093661;28;20028;-60
2023/03/18 14:35:32;;;;;;;6.85;2.20;;;;;;;;;;5093337;28;20032;-62
2023/03/18 14:38:08;;;;;;;5.65;2.50;;;;;;;;;;5092641;28;20582;-60
2023/03/18 14:40:36;;;;;;;8.77;2.45;;;;;;;;;;5092959;28;20099;-60
2023/03/18 14:43:06;;;;;;;11.10;2.38;;;;;;;;;;5092791;28;20059;-61
2023/03/18 14:45:33;;;;;;;7.68;2.30;;;;;;;;;;5092663;28;20050;-61
2023/03/18 14:48:03;;;;;;;10.20;2.33;;;;;;;;;;5093068;28;20480;-61
2023/03/18 14:50:39;;;;;;;7.18;2.58;;;;;;;;;;5092222;28;20028;-60
2023/03/18 14:53:05;;;;;;;8.73;2.17;;;;;;;;;;5092835;28;20027;-61
2023/03/18 14:55:36;;;;;;;4.28;1.50;;;;;;;;;;5092682;28;20396;-60